KRVS

Richard Lloyd Jones Jr Airport

Tulsa, Oklahoma, USA
METAR KRVS 191453Z 19011KT 10SM CLR 01/M07 A3011 RMK AO2 SLP206 T00061072 56005
Observed Flight Rules
Jan-19 @ 14:53 UTC (27 minutes ago) Visual Flight Rules
Wind Visibility Clouds
190° at 11 knots 10 miles
  • Clear skies
Temperatures Readings
Current 1°C / 34°F
Dewpoint -7°C / 19°F
Humidity 56%
Altimeter 30.11" Hg
Pressure 1020.6 hPa
Elevation 200
METAR KRVS 191453Z 19011KT 10SM CLR 01/M07 A3011 RMK AO2 SLP206 T00061072 56005
Observed Flight Rules
Jan-19 @ 14:53 UTC
(27 minutes ago)
VFR
Wind Visibility
190° at 11 knots 10 miles
Clouds
  • Clear skies
Temperature Dewpoint
1°C / 34°F -7°C / 19°F
Humidity Altimeter Pressure
56% 30.11" Hg 1020.6 hPa